Nearby METAR Reports

 

KBVO - Bartlesville, Oklahoma, USA
Distance from station: WNW 10mi, 16km
Updated: Sun, 22-Oct-2017 4:53pm CDT
Clear
Clear
 Wind from varies
Wind: varies 7 mph , 11 km/h
Temperature: 68°F , 20°C
Dew Point: 32°F , 0°C
Humidity: 26%
Barometer: 30.12 inHg , 1020 hPa
Clouds: Clear
Visibility: 10 miles , 16 km
2017/10/22 21:53 KBVO 222153Z AUTO VRB06KT 10SM CLR 20/00 A3012 RMK AO2 SLP194 T02000000 $
KCFV - Coffeyville, Kansas, USA
Distance from station: NNE 31mi, 49km
Updated: Sun, 22-Oct-2017 4:52pm CDT
Clear
Clear
 Wind from NNW
Wind: NNW 14 mph , 22 km/h
Temperature: 70°F , 21°C
Dew Point: 36°F , 2°C
Humidity: 29%
Barometer: 30.11 inHg , 1019.6 hPa
Clouds: Clear
Visibility: 10 miles , 16 km
2017/10/22 21:52 KCFV 222152Z AUTO 33012KT 10SM CLR 21/02 A3011 RMK AO2 SLP193 T02060017 $
 
KIDP - Independence, Kansas, USA
Distance from station: N 32mi, 52km
Updated: Sun, 22-Oct-2017 5:15pm CDT
Clear
Clear
 Wind from N
Wind: N 7 mph , 11 km/h
Temperature: 68°F , 20°C
Dew Point: 36°F , 2°C
Humidity: 30%
Barometer: 30.12 inHg , 1020 hPa
Clouds: Clear
Visibility: 10 miles , 16 km
2017/10/22 22:15 KIDP 222215Z AUTO 35006KT 10SM CLR 20/02 A3012 RMK AO2 T01950021
KGCM - Claremore, Oklahoma, USA
Distance from station: SE 35mi, 56km
Updated: Sun, 22-Oct-2017 5:35pm CDT
Clear
Clear
 Wind from N
Wind: N 7 mph , 11 km/h
Temperature: 66°F , 19°C
Dew Point: 34°F , 1°C
Humidity: 30%
Barometer: 30.12 inHg , 1020 hPa
Clouds: Clear
Visibility: 10 miles , 16 km
2017/10/22 22:35 KGCM 222235Z AUTO 36006KT 10SM CLR 19/01 A3012 RMK AO2
 
KTUL - Tulsa, Oklahoma, USA
Distance from station: S 35mi, 56km
Updated: Sun, 22-Oct-2017 4:53pm CDT
Few Clouds
Few Clouds
 Wind from NNW
Wind: NNW 13 mph , 20 km/h
Temperature: 70°F , 21°C
Dew Point: 36°F , 2°C
Humidity: 29%
Barometer: 30.09 inHg , 1019 hPa
Clouds: Few Clouds
Visibility: 10 miles , 16 km
Cloud details: Few Clouds 25000 ft
2017/10/22 21:53 KTUL 222153Z 34011KT 10SM FEW250 21/02 A3009 RMK AO2 SLP186 T02110017 $
KRVS - Tulsa, Oklahoma, USA
Distance from station: S 46mi, 74km
Updated: Sun, 22-Oct-2017 4:53pm CDT
Clear
Clear
 Wind from NNW
Wind: NNW 8 mph , 13 km/h
Temperature: 70°F , 21°C
Dew Point: 30°F , -1°C
Humidity: 23%
Barometer: 30.11 inHg , 1019.6 hPa
Clouds: Clear
Visibility: 10 miles , 16 km
2017/10/22 21:53 KRVS 222153Z 34007KT 10SM CLR 21/M01 A3011 RMK AO2 SLP204 T02111011
 
KPPF - Parsons, Kansas, USA
Distance from station: NNE 48mi, 76km
Updated: Sun, 22-Oct-2017 4:52pm CDT
Light rain, Clear
Light rain, Clear
 Wind from N
Wind: N 7 mph , 11 km/h
Temperature: 68°F , 20°C
Dew Point: 34°F , 1°C
Humidity: 28%
Barometer: 30.12 inHg , 1020 hPa
Summary: Light rain
Clouds: Clear
Visibility: 10 miles , 16 km
2017/10/22 21:52 KPPF 222152Z AUTO 36006KT 10SM -RA CLR 20/01 A3012 RMK AO2 RAB13 SLP196 P0000 T02000006
KGMJ - Grove, Oklahoma, USA
Distance from station: E 63mi, 101km
Updated: Sun, 22-Oct-2017 5:35pm CDT
Clear
Clear
 Wind from N
Wind: N 5 mph , 7 km/h
Temperature: 63°F , 17°C
Dew Point: 45°F , 7°C
Humidity: 52%
Barometer: 30.13 inHg , 1020.3 hPa
Clouds: Clear
Visibility: 10 miles , 16 km
2017/10/22 22:35 KGMJ 222235Z AUTO 35004KT 10SM CLR 17/07 A3013 RMK AO2
 
KPNC - Ponca City, Oklahoma, USA
Distance from station: W 69mi, 111km
Updated: Sun, 22-Oct-2017 4:53pm CDT
Clear
Clear
 Wind from NW
Wind: NW 7 mph , 11 km/h
Temperature: 70°F , 21°C
Dew Point: 34°F , 1°C
Humidity: 27%
Barometer: 30.13 inHg , 1020.3 hPa
Clouds: Clear
Visibility: 10 miles , 16 km
2017/10/22 21:53 KPNC 222153Z AUTO 32006KT 10SM CLR 21/01 A3013 RMK AO2 SLP197 T02060011
KCNU - Chanute, Kansas, USA
Distance from station: NNE 69mi, 112km
Updated: Sun, 22-Oct-2017 4:52pm CDT
Clear
Clear
 Wind from NNW
Wind: NNW 12 mph , 19 km/h
Temperature: 66°F , 19°C
Dew Point: 36°F , 2°C
Humidity: 32%
Barometer: 30.12 inHg , 1020 hPa
Clouds: Clear
Visibility: 10 miles , 16 km
2017/10/22 21:52 KCNU 222152Z AUTO 33010KT 10SM CLR 19/02 A3012 RMK AO2 SLP194 T01940022